createdAt,value
2019-01-05T00:02:02.576Z,11.17
2019-01-05T00:07:08.112Z,9.67
2019-01-05T00:12:25.720Z,10.00
2019-01-05T00:17:31.137Z,8.57
2019-01-05T00:22:38.662Z,8.83
2019-01-05T00:27:36.187Z,8.57
2019-01-05T00:32:44.908Z,7.13
2019-01-05T00:37:56.968Z,7.30
2019-01-05T00:43:01.924Z,6.47
2019-01-05T00:48:07.722Z,7.17
2019-01-05T00:53:11.234Z,6.50
2019-01-05T00:58:32.411Z,8.40
2019-01-05T01:03:35.705Z,7.13
2019-01-05T01:08:39.077Z,5.90
2019-01-05T01:13:42.221Z,4.93
2019-01-05T01:18:47.195Z,6.17
2019-01-05T01:23:52.235Z,6.57
2019-01-05T01:28:55.662Z,5.77
2019-01-05T01:34:00.919Z,5.67
2019-01-05T01:39:25.156Z,5.50
2019-01-05T01:44:28.517Z,5.30
2019-01-05T01:49:35.936Z,5.77
2019-01-05T01:54:39.382Z,5.37
2019-01-05T02:00:12.643Z,5.80
2019-01-05T02:05:35.945Z,5.20
2019-01-05T02:10:41.056Z,5.67
2019-01-05T02:16:06.548Z,5.70
2019-01-05T02:21:58.113Z,4.90
2019-01-05T02:27:39.156Z,6.37
2019-01-05T02:33:20.497Z,5.73
2019-01-05T02:39:36.104Z,6.47
2019-01-05T02:45:21.484Z,5.37
2019-01-05T02:51:02.246Z,5.57
2019-01-05T02:57:01.298Z,5.47
2019-01-05T03:02:50.236Z,4.53
2019-01-05T03:08:47.975Z,4.27
2019-01-05T03:14:24.271Z,4.77
2019-01-05T03:20:03.181Z,5.37
2019-01-05T03:25:46.954Z,4.67
2019-01-05T03:31:30.025Z,4.83
2019-01-05T03:37:07.613Z,4.93
2019-01-05T03:42:54.258Z,3.57
2019-01-05T03:48:37.211Z,4.90
2019-01-05T03:54:53.107Z,5.57
2019-01-05T04:00:24.377Z,4.87
2019-01-05T04:05:56.753Z,6.40
2019-01-05T04:11:46.474Z,4.77
2019-01-05T04:17:28.562Z,4.57
2019-01-05T04:23:53.158Z,3.57
2019-01-05T04:29:41.972Z,4.10
2019-01-05T04:35:22.858Z,3.53
2019-01-05T04:41:05.788Z,3.10
2019-01-05T04:46:51.389Z,3.53
2019-01-05T04:52:40.768Z,3.50
2019-01-05T04:58:16.992Z,4.00
2019-01-05T05:04:26.536Z,4.80
2019-01-05T05:10:26.207Z,6.07
2019-01-05T05:16:13.835Z,3.47
2019-01-05T05:22:02.182Z,4.30
2019-01-05T05:27:39.896Z,4.50
2019-01-05T05:33:20.338Z,4.90
2019-01-05T05:39:32.949Z,4.50
2019-01-05T05:45:33.587Z,5.30
2019-01-05T05:51:20.174Z,3.20
2019-01-05T05:57:04.871Z,3.87
2019-01-05T06:02:53.713Z,4.07
2019-01-05T06:09:11.305Z,5.40
2019-01-05T06:14:54.041Z,5.20
2019-01-05T06:20:52.423Z,3.83
2019-01-05T06:26:31.377Z,3.57
2019-01-05T06:32:11.712Z,3.90
2019-01-05T06:37:56.086Z,3.63
2019-01-05T06:43:41.367Z,4.03
2019-01-05T06:49:48.405Z,3.60
2019-01-05T06:55:37.431Z,5.37
2019-01-05T07:01:30.405Z,6.90
2019-01-05T07:07:26.497Z,5.87
2019-01-05T07:13:28.953Z,4.00
2019-01-05T07:19:08.593Z,3.70
2019-01-05T07:24:51.253Z,5.17
2019-01-05T07:31:08.643Z,5.63
2019-01-05T07:37:17.061Z,5.33
2019-01-05T07:43:20.003Z,6.63
2019-01-05T07:48:59.066Z,6.47
2019-01-05T07:54:38.974Z,7.67
2019-01-05T08:00:16.626Z,8.53
2019-01-05T08:06:34.962Z,8.70
2019-01-05T08:12:18.713Z,9.30
2019-01-05T08:18:30.562Z,9.27
2019-01-05T08:24:32.211Z,9.00
2019-01-05T08:30:19.336Z,10.33
2019-01-05T08:35:49.273Z,10.00
2019-01-05T08:41:27.136Z,10.73
2019-01-05T08:47:45.367Z,10.17
2019-01-05T08:53:44.190Z,10.20
2019-01-05T08:59:30.660Z,10.87
2019-01-05T09:05:08.508Z,13.73
2019-01-05T09:10:46.061Z,13.47
2019-01-05T09:17:04.518Z,13.43
2019-01-05T09:23:01.977Z,16.07
2019-01-05T09:29:14.233Z,12.23
2019-01-05T09:35:13.482Z,12.70
2019-01-05T09:41:19.528Z,13.23
2019-01-05T09:47:13.005Z,16.03
2019-01-05T09:53:07.344Z,18.13
2019-01-05T09:58:49.635Z,18.40
2019-01-05T10:04:33.683Z,20.60
2019-01-05T10:10:15.727Z,22.60
2019-01-05T10:16:02.592Z,16.87
2019-01-05T10:22:05.089Z,20.63
2019-01-05T10:28:02.005Z,19.00
2019-01-05T10:33:47.547Z,21.57
2019-01-05T10:39:36.672Z,22.50
2019-01-05T10:44:58.102Z,20.50
2019-01-05T10:50:42.814Z,25.30
2019-01-05T10:56:35.735Z,22.77
2019-01-05T11:02:39.346Z,28.33
2019-01-05T11:08:29.594Z,22.67
2019-01-05T11:14:09.431Z,28.63
2019-01-05T11:19:56.362Z,24.50
2019-01-05T11:26:11.554Z,22.33
2019-01-05T11:32:26.662Z,24.73
2019-01-05T11:38:07.321Z,28.10
2019-01-05T11:44:03.581Z,28.30
2019-01-05T11:49:42.350Z,25.10
2019-01-05T11:55:34.530Z,30.57
2019-01-05T12:01:31.403Z,24.53
2019-01-05T12:07:14.047Z,22.63
2019-01-05T12:13:14.655Z,20.27
2019-01-05T12:18:57.600Z,21.13
2019-01-05T12:24:30.792Z,19.43
2019-01-05T12:30:26.573Z,20.63
2019-01-05T12:36:02.721Z,17.43
2019-01-05T12:42:27.715Z,13.83
2019-01-05T12:48:11.402Z,15.83
2019-01-05T12:54:14.801Z,15.10
2019-01-05T13:00:34.816Z,13.53
2019-01-05T13:06:20.599Z,13.87
2019-01-05T13:12:16.085Z,13.87
2019-01-05T13:18:15.301Z,18.93
2019-01-05T13:24:10.300Z,17.30
2019-01-05T13:30:04.247Z,17.13
2019-01-05T13:36:06.659Z,15.60
2019-01-05T13:41:45.634Z,14.07
2019-01-05T13:47:34.232Z,14.77
2019-01-05T13:53:02.082Z,15.90
2019-01-05T13:58:12.725Z,13.97
2019-01-05T14:03:15.976Z,16.03
2019-01-05T14:08:36.702Z,16.63
2019-01-05T14:13:59.982Z,15.23
2019-01-05T14:19:03.204Z,14.13
2019-01-05T14:23:56.691Z,13.83
2019-01-05T14:28:59.905Z,15.43
2019-01-05T14:34:03.351Z,15.37
2019-01-05T14:39:09.601Z,16.03
2019-01-05T14:44:11.809Z,16.47
2019-01-05T14:49:16.421Z,18.97
2019-01-05T14:54:23.304Z,19.77
2019-01-05T14:59:34.048Z,18.73
2019-01-05T15:04:50.746Z,17.90
2019-01-05T15:10:07.188Z,17.27
2019-01-05T15:15:10.297Z,19.57
2019-01-05T15:20:30.048Z,18.47
2019-01-05T15:25:37.731Z,19.90
2019-01-05T15:30:40.830Z,24.37
2019-01-05T15:36:03.729Z,19.17
2019-01-05T15:41:20.446Z,18.33
2019-01-05T15:46:42.477Z,17.87
2019-01-05T15:51:43.487Z,16.57
2019-01-05T15:56:46.906Z,18.77
2019-01-05T16:01:57.784Z,22.00
2019-01-05T16:07:14.588Z,20.87
2019-01-05T16:12:22.032Z,22.93
2019-01-05T16:17:38.567Z,22.10
2019-01-05T16:22:42.202Z,22.07
2019-01-05T16:27:55.856Z,22.60
2019-01-05T16:33:00.554Z,17.87
2019-01-05T16:38:05.161Z,21.60
2019-01-05T16:43:12.879Z,20.80
2019-01-05T16:48:17.563Z,22.17
2019-01-05T16:53:28.622Z,19.07
2019-01-05T16:58:48.687Z,23.37
2019-01-05T17:03:51.858Z,20.17
2019-01-05T17:08:56.665Z,20.43
2019-01-05T17:14:01.389Z,22.33
2019-01-05T17:19:11.000Z,23.10
2019-01-05T17:24:18.725Z,23.93
2019-01-05T17:29:22.219Z,23.57
2019-01-05T17:34:30.076Z,24.50
2019-01-05T17:39:52.862Z,25.13
2019-01-05T17:45:00.880Z,23.50
2019-01-05T17:50:03.547Z,23.33
2019-01-05T17:55:07.062Z,24.37
2019-01-05T18:00:10.418Z,22.77
2019-01-05T18:05:21.331Z,25.23
2019-01-05T18:10:29.277Z,23.30
2019-01-05T18:15:32.598Z,23.90
2019-01-05T18:20:37.289Z,23.40
2019-01-05T18:25:57.347Z,25.40
2019-01-05T18:31:01.025Z,26.13
2019-01-05T18:36:21.438Z,26.60
2019-01-05T18:41:26.380Z,27.70
2019-01-05T18:46:37.531Z,29.37
2019-01-05T18:51:48.421Z,27.60
2019-01-05T18:56:52.052Z,24.77
2019-01-05T19:01:59.739Z,29.83
2019-01-05T19:07:07.768Z,29.60
2019-01-05T19:12:15.738Z,30.33
2019-01-05T19:17:26.536Z,30.30
2019-01-05T19:22:30.176Z,33.90
2019-01-05T19:27:31.508Z,34.80
2019-01-05T19:32:42.449Z,32.83
2019-01-05T19:37:47.490Z,32.07
2019-01-05T19:43:07.928Z,29.70
2019-01-05T19:48:15.897Z,29.87
2019-01-05T19:53:20.102Z,32.90
2019-01-05T19:58:32.708Z,31.67
2019-01-05T20:03:38.184Z,30.97
2019-01-05T20:08:55.857Z,30.27
2019-01-05T20:13:59.635Z,31.53
2019-01-05T20:19:02.042Z,35.80
2019-01-05T20:24:18.932Z,37.33
2019-01-05T20:29:34.932Z,32.37
2019-01-05T20:34:38.560Z,33.50
2019-01-05T20:39:43.601Z,33.60
2019-01-05T20:44:54.571Z,29.60
2019-01-05T20:49:58.907Z,29.23
2019-01-05T20:55:03.127Z,29.50
2019-01-05T21:00:17.114Z,31.63
2019-01-05T21:05:27.849Z,35.60
2019-01-05T21:10:31.317Z,28.27
2019-01-05T21:15:48.525Z,31.00
2019-01-05T21:20:56.119Z,32.33
2019-01-05T21:26:04.280Z,34.03
2019-01-05T21:31:07.594Z,33.33
2019-01-05T21:36:15.581Z,31.53
2019-01-05T21:41:23.156Z,34.63
2019-01-05T21:46:34.152Z,33.13
2019-01-05T21:51:37.374Z,32.30
2019-01-05T21:56:41.238Z,31.77
2019-01-05T22:01:44.837Z,35.60
2019-01-05T22:06:49.545Z,26.63
2019-01-05T22:12:04.555Z,28.80
2019-01-05T22:17:08.034Z,28.40
2019-01-05T22:22:25.380Z,28.43
2019-01-05T22:27:37.665Z,29.30
2019-01-05T22:32:41.250Z,31.70
2019-01-05T22:37:44.480Z,33.23
2019-01-05T22:42:58.140Z,33.83
2019-01-05T22:48:21.145Z,32.57
2019-01-05T22:53:41.258Z,32.87
2019-01-05T22:58:54.947Z,29.27
2019-01-05T23:04:05.691Z,30.57
2019-01-05T23:09:29.127Z,34.23
2019-01-05T23:14:49.185Z,32.60
2019-01-05T23:19:53.757Z,34.57
2019-01-05T23:25:04.239Z,29.13
2019-01-05T23:30:08.044Z,46.23
2019-01-05T23:35:10.640Z,66.90
2019-01-05T23:40:21.388Z,48.03
2019-01-05T23:45:35.102Z,40.37
2019-01-05T23:50:45.839Z,36.93
2019-01-05T23:55:51.322Z,36.70
